Погода Лешанина неделю

Скопье, Македония

16 - 22 июля
  • 16июля
    Сегодня
    +13°
    +34°
    Практически безоблачно
    ВремяПогодаТемператураВлажностьДавлениеВетер, м/сВероятность осадков
    02:00Ясно и безоблачно+17°C61 %694 мм1.0 м/с2 %
    05:00Ясно и безоблачно+14°C61 %694 мм0.9 м/с2 %
    08:00Ясно и безоблачно+23°C56 %696 мм1.0 м/с2 %
    11:00Ясно и безоблачно+29°C36 %697 мм1.1 м/с2 %
    14:00Практически безоблачно+33°C28 %697 мм0.9 м/с2 %
    17:00Практически безоблачно+33°C27 %696 мм0.5 м/с1 %
    20:00Практически безоблачно+26°C57 %695 мм0.8 м/с2 %
    23:00Ясно и безоблачно+18°C72 %694 мм0.5 м/с2 %
  • 17июля
    Среда
    +16°
    +34°
    Практически безоблачно
    ВремяПогодаТемператураВлажностьДавлениеВетер, м/сВероятность осадков
    02:00Ясно и безоблачно+16°C76 %694 мм0.4 м/с2 %
    05:00Ясно и безоблачно+14°C73 %694 мм0.4 м/с2 %
    08:00Ясно и безоблачно+23°C59 %697 мм0.5 м/с2 %
    11:00Ясно и безоблачно+30°C32 %698 мм0.3 м/с2 %
    14:00Практически безоблачно+34°C24 %698 мм0.4 м/с3 %
    17:00Небольшая облачность+33°C27 %697 мм1.0 м/с10 %
    20:00Небольшая облачность+26°C54 %697 мм1.4 м/с2 %
    23:00Ясно и безоблачно+19°C63 %696 мм1.0 м/с2 %
  • 18июля
    Четверг
    +15°
    +34°
    Небольшая облачность
    ВремяПогодаТемператураВлажностьДавлениеВетер, м/сВероятность осадков
    02:00Ясно и безоблачно+18°C60 %696 мм1.4 м/с2 %
    05:00Ясно и безоблачно+17°C66 %696 мм1.1 м/с2 %
    08:00Ясно и безоблачно+24°C55 %698 мм0.9 м/с2 %
    11:00Ясно и безоблачно+30°C36 %699 мм1.6 м/с2 %
    14:00Небольшая облачность+34°C30 %699 мм1.0 м/с16 %
    17:00Небольшая облачность+31°C46 %699 мм0.7 м/с44 %
    20:00Практически безоблачно+26°C63 %698 мм1.6 м/с10 %
    23:00Ясно и безоблачно+21°C77 %698 мм1.4 м/с2 %
  • 19июля
    Пятница
    +15°
    +31°
    Практически безоблачно
    ВремяПогодаТемператураВлажностьДавлениеВетер, м/сВероятность осадков
    02:00Ясно и безоблачно+18°C80 %697 мм1.3 м/с2 %
    05:00Ясно и безоблачно+16°C82 %696 мм1.3 м/с2 %
    08:00Ясно и безоблачно+23°C62 %698 мм1.1 м/с2 %
    11:00Ясно и безоблачно+29°C45 %699 мм1.8 м/с5 %
    14:00Практически безоблачно+32°C34 %698 мм1.1 м/с23 %
    17:00Ясно и безоблачно+29°C33 %696 мм1.8 м/с47 %
    20:00Практически безоблачно+25°C55 %696 мм1.3 м/с21 %
    23:00Ясно и безоблачно+20°C69 %695 мм1.2 м/с2 %
  • 20июля
    Суббота
    +14°
    +33°
    Облачно с прояснениями
    ВремяПогодаТемператураВлажностьДавлениеВетер, м/сВероятность осадков
    02:00Ясно и безоблачно+18°C78 %695 мм1.1 м/с2 %
    05:00Ясно и безоблачно+16°C83 %694 мм1.1 м/с2 %
    08:00Ясно и безоблачно+23°C63 %696 мм1.2 м/с3 %
    11:00Ясно и безоблачно+29°C48 %696 мм1.7 м/с21 %
    14:00Облачно с прояснениями+33°C42 %695 мм0.5 м/с39 %
    17:00Небольшая облачность, возможен дождь с грозой+27°C71 %695 мм1.8 м/с65 %
    20:00Небольшая облачность, возможен дождь с грозой+23°C84 %695 мм0.9 м/с41 %
    23:00Ясно и безоблачно+18°C93 %694 мм0.9 м/с6 %
Мы используем cookies
Соглашаюсь